sensor_id;sensor_type;location;lat;lon;timestamp;P1;durP1;ratioP1;P2;durP2;ratioP2
20443;SDS011;10381;53.730;10.010;2022-07-23T00:03:35;5.57;;;3.67;;
20443;SDS011;10381;53.730;10.010;2022-07-23T00:07:36;3.80;;;3.30;;
20443;SDS011;10381;53.730;10.010;2022-07-23T00:11:37;4.85;;;3.88;;
20443;SDS011;10381;53.730;10.010;2022-07-23T00:15:37;5.97;;;4.57;;
20443;SDS011;10381;53.730;10.010;2022-07-23T00:19:38;5.57;;;3.60;;
20443;SDS011;10381;53.730;10.010;2022-07-23T00:23:38;6.70;;;3.55;;
20443;SDS011;10381;53.730;10.010;2022-07-23T00:27:38;6.00;;;3.95;;
20443;SDS011;10381;53.730;10.010;2022-07-23T00:31:39;7.88;;;3.90;;
20443;SDS011;10381;53.730;10.010;2022-07-23T00:35:41;4.22;;;3.65;;
20443;SDS011;10381;53.730;10.010;2022-07-23T00:39:42;4.05;;;3.65;;
20443;SDS011;10381;53.730;10.010;2022-07-23T00:43:42;5.73;;;3.53;;
20443;SDS011;10381;53.730;10.010;2022-07-23T00:47:43;4.00;;;3.70;;
20443;SDS011;10381;53.730;10.010;2022-07-23T00:51:43;7.57;;;3.80;;
20443;SDS011;10381;53.730;10.010;2022-07-23T00:55:43;6.95;;;3.90;;
20443;SDS011;10381;53.730;10.010;2022-07-23T00:59:44;4.03;;;3.50;;
20443;SDS011;10381;53.730;10.010;2022-07-23T01:03:44;3.70;;;3.37;;
20443;SDS011;10381;53.730;10.010;2022-07-23T01:07:44;3.93;;;3.50;;
20443;SDS011;10381;53.730;10.010;2022-07-23T01:11:45;4.60;;;3.45;;
20443;SDS011;10381;53.730;10.010;2022-07-23T01:15:46;6.87;;;3.80;;
20443;SDS011;10381;53.730;10.010;2022-07-23T01:19:46;4.43;;;3.40;;
20443;SDS011;10381;53.730;10.010;2022-07-23T01:23:46;8.27;;;3.83;;
20443;SDS011;10381;53.730;10.010;2022-07-23T01:27:47;3.23;;;2.93;;
20443;SDS011;10381;53.730;10.010;2022-07-23T01:31:48;3.90;;;3.50;;
20443;SDS011;10381;53.730;10.010;2022-07-23T01:35:48;8.95;;;3.67;;
20443;SDS011;10381;53.730;10.010;2022-07-23T01:39:48;5.47;;;3.80;;
20443;SDS011;10381;53.730;10.010;2022-07-23T01:43:49;6.63;;;3.33;;
20443;SDS011;10381;53.730;10.010;2022-07-23T01:47:49;3.50;;;3.20;;
20443;SDS011;10381;53.730;10.010;2022-07-23T01:51:50;7.57;;;3.13;;
20443;SDS011;10381;53.730;10.010;2022-07-23T01:56:02;4.22;;;3.55;;
20443;SDS011;10381;53.730;10.010;2022-07-23T02:00:03;4.35;;;3.45;;
20443;SDS011;10381;53.730;10.010;2022-07-23T02:04:04;3.83;;;3.22;;
20443;SDS011;10381;53.730;10.010;2022-07-23T02:08:04;5.07;;;3.08;;
20443;SDS011;10381;53.730;10.010;2022-07-23T02:12:05;3.83;;;3.25;;
20443;SDS011;10381;53.730;10.010;2022-07-23T02:16:06;5.32;;;2.88;;
20443;SDS011;10381;53.730;10.010;2022-07-23T02:20:06;6.07;;;3.20;;
20443;SDS011;10381;53.730;10.010;2022-07-23T02:24:08;3.72;;;3.30;;
20443;SDS011;10381;53.730;10.010;2022-07-23T02:28:08;5.40;;;3.40;;
20443;SDS011;10381;53.730;10.010;2022-07-23T02:32:08;11.07;;;3.37;;
20443;SDS011;10381;53.730;10.010;2022-07-23T02:36:09;4.53;;;3.20;;
20443;SDS011;10381;53.730;10.010;2022-07-23T02:40:09;9.70;;;3.78;;
20443;SDS011;10381;53.730;10.010;2022-07-23T02:44:10;20.38;;;3.63;;
20443;SDS011;10381;53.730;10.010;2022-07-23T02:48:10;9.73;;;3.70;;
20443;SDS011;10381;53.730;10.010;2022-07-23T02:52:12;4.15;;;3.75;;
20443;SDS011;10381;53.730;10.010;2022-07-23T02:56:13;4.60;;;3.40;;
20443;SDS011;10381;53.730;10.010;2022-07-23T03:00:13;5.20;;;3.73;;
20443;SDS011;10381;53.730;10.010;2022-07-23T03:04:13;5.28;;;3.97;;
20443;SDS011;10381;53.730;10.010;2022-07-23T03:08:14;4.57;;;3.53;;
20443;SDS011;10381;53.730;10.010;2022-07-23T03:12:14;10.18;;;3.42;;
20443;SDS011;10381;53.730;10.010;2022-07-23T03:16:14;8.95;;;3.45;;
20443;SDS011;10381;53.730;10.010;2022-07-23T03:20:15;5.55;;;3.88;;
20443;SDS011;10381;53.730;10.010;2022-07-23T03:24:15;6.07;;;3.70;;
20443;SDS011;10381;53.730;10.010;2022-07-23T03:28:18;4.43;;;3.28;;
20443;SDS011;10381;53.730;10.010;2022-07-23T03:32:19;4.03;;;3.65;;
20443;SDS011;10381;53.730;10.010;2022-07-23T03:36:21;4.43;;;3.45;;
20443;SDS011;10381;53.730;10.010;2022-07-23T03:40:21;3.40;;;3.10;;
20443;SDS011;10381;53.730;10.010;2022-07-23T03:44:21;6.20;;;3.72;;
20443;SDS011;10381;53.730;10.010;2022-07-23T03:48:22;6.80;;;4.03;;
20443;SDS011;10381;53.730;10.010;2022-07-23T03:52:23;5.80;;;3.80;;
20443;SDS011;10381;53.730;10.010;2022-07-23T03:56:23;5.20;;;3.37;;
20443;SDS011;10381;53.730;10.010;2022-07-23T04:00:23;7.15;;;3.30;;
20443;SDS011;10381;53.730;10.010;2022-07-23T04:04:24;5.13;;;3.65;;
20443;SDS011;10381;53.730;10.010;2022-07-23T04:08:24;4.13;;;3.30;;
20443;SDS011;10381;53.730;10.010;2022-07-23T04:12:25;4.75;;;3.60;;
20443;SDS011;10381;53.730;10.010;2022-07-23T04:16:25;5.40;;;3.73;;
20443;SDS011;10381;53.730;10.010;2022-07-23T04:20:25;7.95;;;3.75;;
20443;SDS011;10381;53.730;10.010;2022-07-23T04:24:26;5.07;;;4.20;;
20443;SDS011;10381;53.730;10.010;2022-07-23T04:28:26;3.97;;;3.60;;
20443;SDS011;10381;53.730;10.010;2022-07-23T04:32:26;3.40;;;3.20;;
20443;SDS011;10381;53.730;10.010;2022-07-23T04:36:27;8.40;;;3.50;;
20443;SDS011;10381;53.730;10.010;2022-07-23T04:40:27;4.03;;;3.70;;
20443;SDS011;10381;53.730;10.010;2022-07-23T04:44:28;4.35;;;3.63;;
20443;SDS011;10381;53.730;10.010;2022-07-23T04:48:28;5.13;;;3.53;;
20443;SDS011;10381;53.730;10.010;2022-07-23T04:52:28;3.87;;;3.33;;
20443;SDS011;10381;53.730;10.010;2022-07-23T04:56:29;5.57;;;3.53;;
20443;SDS011;10381;53.730;10.010;2022-07-23T05:00:29;3.60;;;3.30;;
20443;SDS011;10381;53.730;10.010;2022-07-23T05:04:29;3.43;;;3.13;;
20443;SDS011;10381;53.730;10.010;2022-07-23T05:08:31;3.55;;;3.25;;
20443;SDS011;10381;53.730;10.010;2022-07-23T05:12:31;6.78;;;3.42;;
20443;SDS011;10381;53.730;10.010;2022-07-23T05:16:32;6.93;;;4.10;;
20443;SDS011;10381;53.730;10.010;2022-07-23T05:20:33;5.13;;;3.83;;
20443;SDS011;10381;53.730;10.010;2022-07-23T05:24:33;4.20;;;3.38;;
20443;SDS011;10381;53.730;10.010;2022-07-23T05:28:33;3.53;;;3.13;;
20443;SDS011;10381;53.730;10.010;2022-07-23T05:32:34;9.50;;;3.17;;
20443;SDS011;10381;53.730;10.010;2022-07-23T05:36:34;4.60;;;3.53;;
20443;SDS011;10381;53.730;10.010;2022-07-23T05:40:35;3.10;;;2.90;;
20443;SDS011;10381;53.730;10.010;2022-07-23T05:44:35;5.37;;;3.93;;
20443;SDS011;10381;53.730;10.010;2022-07-23T05:48:35;11.48;;;5.30;;
20443;SDS011;10381;53.730;10.010;2022-07-23T05:52:36;5.30;;;3.67;;
20443;SDS011;10381;53.730;10.010;2022-07-23T05:56:36;11.60;;;3.30;;
20443;SDS011;10381;53.730;10.010;2022-07-23T06:00:36;3.75;;;3.45;;
20443;SDS011;10381;53.730;10.010;2022-07-23T06:04:37;4.43;;;4.03;;
20443;SDS011;10381;53.730;10.010;2022-07-23T06:08:37;9.73;;;3.67;;
20443;SDS011;10381;53.730;10.010;2022-07-23T06:12:38;5.63;;;3.23;;
20443;SDS011;10381;53.730;10.010;2022-07-23T06:16:38;5.05;;;3.63;;
20443;SDS011;10381;53.730;10.010;2022-07-23T06:20:38;4.40;;;3.90;;
20443;SDS011;10381;53.730;10.010;2022-07-23T06:24:39;5.10;;;3.60;;
20443;SDS011;10381;53.730;10.010;2022-07-23T06:28:39;4.90;;;4.00;;
20443;SDS011;10381;53.730;10.010;2022-07-23T06:32:39;4.47;;;4.10;;
20443;SDS011;10381;53.730;10.010;2022-07-23T06:36:39;4.80;;;3.97;;
20443;SDS011;10381;53.730;10.010;2022-07-23T06:40:40;4.10;;;3.80;;
20443;SDS011;10381;53.730;10.010;2022-07-23T06:44:40;4.83;;;3.53;;
20443;SDS011;10381;53.730;10.010;2022-07-23T06:48:40;4.27;;;3.77;;
20443;SDS011;10381;53.730;10.010;2022-07-23T06:52:41;7.10;;;3.67;;
20443;SDS011;10381;53.730;10.010;2022-07-23T06:56:41;5.32;;;3.78;;
20443;SDS011;10381;53.730;10.010;2022-07-23T07:00:43;5.50;;;5.03;;
20443;SDS011;10381;53.730;10.010;2022-07-23T07:04:43;19.87;;;11.83;;
20443;SDS011;10381;53.730;10.010;2022-07-23T07:08:43;4.35;;;4.05;;
20443;SDS011;10381;53.730;10.010;2022-07-23T07:12:44;4.40;;;4.10;;
20443;SDS011;10381;53.730;10.010;2022-07-23T07:16:44;5.03;;;4.63;;
20443;SDS011;10381;53.730;10.010;2022-07-23T07:20:44;4.77;;;4.47;;
20443;SDS011;10381;53.730;10.010;2022-07-23T07:24:45;4.43;;;4.13;;
20443;SDS011;10381;53.730;10.010;2022-07-23T07:28:45;4.63;;;4.27;;
20443;SDS011;10381;53.730;10.010;2022-07-23T07:32:45;4.37;;;4.07;;
20443;SDS011;10381;53.730;10.010;2022-07-23T07:36:46;4.75;;;4.35;;
20443;SDS011;10381;53.730;10.010;2022-07-23T07:40:46;3.80;;;3.53;;
20443;SDS011;10381;53.730;10.010;2022-07-23T07:44:46;3.78;;;3.40;;
20443;SDS011;10381;53.730;10.010;2022-07-23T07:48:46;4.07;;;3.78;;
20443;SDS011;10381;53.730;10.010;2022-07-23T07:52:47;8.73;;;4.83;;
20443;SDS011;10381;53.730;10.010;2022-07-23T07:56:47;4.37;;;4.07;;
20443;SDS011;10381;53.730;10.010;2022-07-23T08:00:48;4.00;;;3.78;;
20443;SDS011;10381;53.730;10.010;2022-07-23T08:04:48;5.10;;;3.80;;
20443;SDS011;10381;53.730;10.010;2022-07-23T08:08:49;4.43;;;4.07;;
20443;SDS011;10381;53.730;10.010;2022-07-23T08:12:50;4.53;;;4.18;;
20443;SDS011;10381;53.730;10.010;2022-07-23T08:16:53;3.83;;;3.53;;
20443;SDS011;10381;53.730;10.010;2022-07-23T08:20:53;6.40;;;3.90;;
20443;SDS011;10381;53.730;10.010;2022-07-23T08:24:53;4.07;;;3.77;;
20443;SDS011;10381;53.730;10.010;2022-07-23T08:28:54;6.37;;;4.30;;
20443;SDS011;10381;53.730;10.010;2022-07-23T08:32:58;10.57;;;4.93;;
20443;SDS011;10381;53.730;10.010;2022-07-23T08:37:00;4.50;;;4.20;;
20443;SDS011;10381;53.730;10.010;2022-07-23T08:41:00;4.73;;;4.30;;
20443;SDS011;10381;53.730;10.010;2022-07-23T08:45:02;4.28;;;3.97;;
20443;SDS011;10381;53.730;10.010;2022-07-23T08:49:03;5.32;;;4.82;;
20443;SDS011;10381;53.730;10.010;2022-07-23T08:53:06;4.32;;;3.95;;
20443;SDS011;10381;53.730;10.010;2022-07-23T08:57:07;4.10;;;3.83;;
20443;SDS011;10381;53.730;10.010;2022-07-23T09:01:08;3.90;;;3.70;;
20443;SDS011;10381;53.730;10.010;2022-07-23T09:05:08;4.93;;;4.40;;
20443;SDS011;10381;53.730;10.010;2022-07-23T09:09:17;3.63;;;3.42;;
20443;SDS011;10381;53.730;10.010;2022-07-23T09:13:25;4.57;;;3.60;;
20443;SDS011;10381;53.730;10.010;2022-07-23T09:17:27;3.80;;;3.50;;
20443;SDS011;10381;53.730;10.010;2022-07-23T09:21:37;4.93;;;4.35;;
20443;SDS011;10381;53.730;10.010;2022-07-23T09:25:38;4.18;;;3.88;;
20443;SDS011;10381;53.730;10.010;2022-07-23T09:29:39;4.67;;;3.90;;
20443;SDS011;10381;53.730;10.010;2022-07-23T09:33:39;3.33;;;3.10;;
20443;SDS011;10381;53.730;10.010;2022-07-23T09:37:39;3.37;;;3.17;;
20443;SDS011;10381;53.730;10.010;2022-07-23T09:41:41;4.97;;;3.70;;
20443;SDS011;10381;53.730;10.010;2022-07-23T09:45:45;3.92;;;3.63;;
20443;SDS011;10381;53.730;10.010;2022-07-23T09:50:01;3.50;;;3.27;;
20443;SDS011;10381;53.730;10.010;2022-07-23T09:54:09;3.35;;;3.05;;
20443;SDS011;10381;53.730;10.010;2022-07-23T09:58:21;3.58;;;3.35;;
20443;SDS011;10381;53.730;10.010;2022-07-23T10:02:22;4.30;;;3.03;;
20443;SDS011;10381;53.730;10.010;2022-07-23T10:06:24;3.20;;;3.00;;
20443;SDS011;10381;53.730;10.010;2022-07-23T10:10:24;2.90;;;2.70;;
20443;SDS011;10381;53.730;10.010;2022-07-23T10:14:27;3.28;;;3.08;;
20443;SDS011;10381;53.730;10.010;2022-07-23T10:18:31;3.33;;;3.05;;
20443;SDS011;10381;53.730;10.010;2022-07-23T10:22:37;3.75;;;3.45;;
20443;SDS011;10381;53.730;10.010;2022-07-23T10:31:10;3.63;;;3.42;;
20443;SDS011;10381;53.730;10.010;2022-07-23T10:35:40;3.78;;;3.42;;
20443;SDS011;10381;53.730;10.010;2022-07-23T10:39:42;3.00;;;2.80;;
20443;SDS011;10381;53.730;10.010;2022-07-23T10:43:42;3.80;;;3.50;;
20443;SDS011;10381;53.730;10.010;2022-07-23T10:47:43;4.00;;;3.70;;
20443;SDS011;10381;53.730;10.010;2022-07-23T10:52:29;3.20;;;3.00;;
20443;SDS011;10381;53.730;10.010;2022-07-23T10:56:16;3.55;;;3.35;;
20443;SDS011;10381;53.730;10.010;2022-07-23T11:00:36;3.33;;;3.05;;
20443;SDS011;10381;53.730;10.010;2022-07-23T11:04:49;2.50;;;2.40;;
20443;SDS011;10381;53.730;10.010;2022-07-23T11:13:25;2.30;;;2.20;;
20443;SDS011;10381;53.730;10.010;2022-07-23T11:17:27;3.53;;;2.60;;
20443;SDS011;10381;53.730;10.010;2022-07-23T11:25:38;5.10;;;2.58;;
20443;SDS011;10381;53.730;10.010;2022-07-23T11:29:38;6.28;;;2.50;;
20443;SDS011;10381;53.730;10.010;2022-07-23T11:33:39;3.83;;;2.17;;
20443;SDS011;10381;53.730;10.010;2022-07-23T11:37:40;3.80;;;2.40;;
20443;SDS011;10381;53.730;10.010;2022-07-23T11:41:44;2.00;;;1.90;;
20443;SDS011;10381;53.730;10.010;2022-07-23T11:46:02;2.13;;;1.98;;
20443;SDS011;10381;53.730;10.010;2022-07-23T11:50:04;3.80;;;2.00;;
20443;SDS011;10381;53.730;10.010;2022-07-23T11:54:06;2.88;;;1.90;;
20443;SDS011;10381;53.730;10.010;2022-07-23T11:58:06;2.38;;;2.15;;
20443;SDS011;10381;53.730;10.010;2022-07-23T12:02:07;2.53;;;2.00;;
20443;SDS011;10381;53.730;10.010;2022-07-23T12:06:08;2.70;;;2.28;;
20443;SDS011;10381;53.730;10.010;2022-07-23T12:10:10;2.50;;;2.30;;
20443;SDS011;10381;53.730;10.010;2022-07-23T12:14:13;2.75;;;2.05;;
20443;SDS011;10381;53.730;10.010;2022-07-23T12:18:19;2.13;;;2.00;;
20443;SDS011;10381;53.730;10.010;2022-07-23T12:22:21;1.90;;;1.80;;
20443;SDS011;10381;53.730;10.010;2022-07-23T12:26:23;1.70;;;1.58;;
20443;SDS011;10381;53.730;10.010;2022-07-23T12:30:27;3.07;;;1.90;;
20443;SDS011;10381;53.730;10.010;2022-07-23T12:34:31;2.67;;;1.63;;
20443;SDS011;10381;53.730;10.010;2022-07-23T12:38:47;2.53;;;1.73;;
20443;SDS011;10381;53.730;10.010;2022-07-23T12:42:50;1.60;;;1.50;;
20443;SDS011;10381;53.730;10.010;2022-07-23T12:46:52;1.98;;;1.70;;
20443;SDS011;10381;53.730;10.010;2022-07-23T12:51:03;2.30;;;2.10;;
20443;SDS011;10381;53.730;10.010;2022-07-23T12:55:05;1.50;;;1.40;;
20443;SDS011;10381;53.730;10.010;2022-07-23T12:59:07;3.72;;;1.70;;
20443;SDS011;10381;53.730;10.010;2022-07-23T13:03:20;1.88;;;1.77;;
20443;SDS011;10381;53.730;10.010;2022-07-23T13:07:31;2.00;;;1.85;;
20443;SDS011;10381;53.730;10.010;2022-07-23T13:11:32;1.93;;;1.70;;
20443;SDS011;10381;53.730;10.010;2022-07-23T13:15:33;1.77;;;1.52;;
20443;SDS011;10381;53.730;10.010;2022-07-23T13:19:33;5.10;;;1.63;;
20443;SDS011;10381;53.730;10.010;2022-07-23T13:23:34;2.63;;;2.13;;
20443;SDS011;10381;53.730;10.010;2022-07-23T13:27:34;2.50;;;2.30;;
20443;SDS011;10381;53.730;10.010;2022-07-23T13:31:38;3.75;;;2.50;;
20443;SDS011;10381;53.730;10.010;2022-07-23T13:35:38;10.70;;;2.45;;
20443;SDS011;10381;53.730;10.010;2022-07-23T13:39:39;2.85;;;2.40;;
20443;SDS011;10381;53.730;10.010;2022-07-23T13:43:39;1.93;;;1.83;;
20443;SDS011;10381;53.730;10.010;2022-07-23T13:47:39;2.10;;;2.00;;
20443;SDS011;10381;53.730;10.010;2022-07-23T13:51:40;4.50;;;1.90;;
20443;SDS011;10381;53.730;10.010;2022-07-23T13:55:40;4.80;;;1.87;;
20443;SDS011;10381;53.730;10.010;2022-07-23T13:59:41;3.10;;;2.03;;
20443;SDS011;10381;53.730;10.010;2022-07-23T14:03:42;2.30;;;1.92;;
20443;SDS011;10381;53.730;10.010;2022-07-23T14:07:42;1.73;;;1.63;;
20443;SDS011;10381;53.730;10.010;2022-07-23T14:11:44;1.70;;;1.60;;
20443;SDS011;10381;53.730;10.010;2022-07-23T14:15:44;3.43;;;2.37;;
20443;SDS011;10381;53.730;10.010;2022-07-23T14:19:44;4.57;;;2.17;;
20443;SDS011;10381;53.730;10.010;2022-07-23T14:23:45;1.90;;;1.80;;
20443;SDS011;10381;53.730;10.010;2022-07-23T14:27:45;2.60;;;2.10;;
20443;SDS011;10381;53.730;10.010;2022-07-23T14:31:45;2.20;;;2.10;;
20443;SDS011;10381;53.730;10.010;2022-07-23T14:35:46;1.90;;;1.80;;
20443;SDS011;10381;53.730;10.010;2022-07-23T14:39:46;2.15;;;1.70;;
20443;SDS011;10381;53.730;10.010;2022-07-23T14:43:47;1.98;;;1.88;;
20443;SDS011;10381;53.730;10.010;2022-07-23T14:47:48;2.10;;;2.00;;
20443;SDS011;10381;53.730;10.010;2022-07-23T14:51:49;1.93;;;1.83;;
20443;SDS011;10381;53.730;10.010;2022-07-23T14:55:49;2.65;;;2.45;;
20443;SDS011;10381;53.730;10.010;2022-07-23T14:59:49;2.70;;;2.37;;
20443;SDS011;10381;53.730;10.010;2022-07-23T15:03:50;2.40;;;2.10;;
20443;SDS011;10381;53.730;10.010;2022-07-23T15:07:50;1.87;;;1.77;;
20443;SDS011;10381;53.730;10.010;2022-07-23T15:11:50;1.80;;;1.70;;
20443;SDS011;10381;53.730;10.010;2022-07-23T15:15:51;4.30;;;2.40;;
20443;SDS011;10381;53.730;10.010;2022-07-23T15:19:51;2.83;;;2.10;;
20443;SDS011;10381;53.730;10.010;2022-07-23T15:23:51;2.83;;;2.20;;
20443;SDS011;10381;53.730;10.010;2022-07-23T15:27:52;3.08;;;2.47;;
20443;SDS011;10381;53.730;10.010;2022-07-23T15:31:52;2.50;;;2.30;;
20443;SDS011;10381;53.730;10.010;2022-07-23T15:35:53;3.38;;;2.47;;
20443;SDS011;10381;53.730;10.010;2022-07-23T15:39:56;2.72;;;2.38;;
20443;SDS011;10381;53.730;10.010;2022-07-23T15:43:56;2.77;;;2.40;;
20443;SDS011;10381;53.730;10.010;2022-07-23T15:47:57;2.50;;;2.30;;
20443;SDS011;10381;53.730;10.010;2022-07-23T15:51:57;2.05;;;1.95;;
20443;SDS011;10381;53.730;10.010;2022-07-23T15:55:58;2.20;;;2.08;;
20443;SDS011;10381;53.730;10.010;2022-07-23T15:59:58;5.13;;;2.17;;
20443;SDS011;10381;53.730;10.010;2022-07-23T16:03:59;5.13;;;1.90;;
20443;SDS011;10381;53.730;10.010;2022-07-23T16:08:03;2.55;;;2.13;;
20443;SDS011;10381;53.730;10.010;2022-07-23T16:12:04;2.80;;;2.05;;
20443;SDS011;10381;53.730;10.010;2022-07-23T16:16:05;2.50;;;2.30;;
20443;SDS011;10381;53.730;10.010;2022-07-23T16:20:06;2.67;;;2.28;;
20443;SDS011;10381;53.730;10.010;2022-07-23T16:24:07;1.92;;;1.73;;
20443;SDS011;10381;53.730;10.010;2022-07-23T16:28:07;3.03;;;1.83;;
20443;SDS011;10381;53.730;10.010;2022-07-23T16:32:08;2.83;;;2.08;;
20443;SDS011;10381;53.730;10.010;2022-07-23T16:36:08;2.43;;;2.23;;
20443;SDS011;10381;53.730;10.010;2022-07-23T16:40:09;3.42;;;2.47;;
20443;SDS011;10381;53.730;10.010;2022-07-23T16:44:10;2.17;;;1.98;;
20443;SDS011;10381;53.730;10.010;2022-07-23T16:48:11;4.05;;;2.00;;
20443;SDS011;10381;53.730;10.010;2022-07-23T16:52:11;2.40;;;2.20;;
20443;SDS011;10381;53.730;10.010;2022-07-23T16:56:12;3.22;;;2.10;;
20443;SDS011;10381;53.730;10.010;2022-07-23T17:00:12;2.03;;;1.83;;
20443;SDS011;10381;53.730;10.010;2022-07-23T17:04:13;3.67;;;2.22;;
20443;SDS011;10381;53.730;10.010;2022-07-23T17:08:13;1.90;;;1.80;;
20443;SDS011;10381;53.730;10.010;2022-07-23T17:12:14;1.83;;;1.70;;
20443;SDS011;10381;53.730;10.010;2022-07-23T17:16:15;2.60;;;2.40;;
20443;SDS011;10381;53.730;10.010;2022-07-23T17:20:16;3.72;;;2.40;;
20443;SDS011;10381;53.730;10.010;2022-07-23T17:24:16;3.35;;;2.30;;
20443;SDS011;10381;53.730;10.010;2022-07-23T17:28:17;7.35;;;3.20;;
20443;SDS011;10381;53.730;10.010;2022-07-23T17:32:17;2.77;;;2.27;;
20443;SDS011;10381;53.730;10.010;2022-07-23T17:36:19;2.88;;;2.40;;
20443;SDS011;10381;53.730;10.010;2022-07-23T17:40:19;2.45;;;2.25;;
20443;SDS011;10381;53.730;10.010;2022-07-23T17:44:20;3.00;;;2.70;;
20443;SDS011;10381;53.730;10.010;2022-07-23T17:48:20;3.03;;;2.53;;
20443;SDS011;10381;53.730;10.010;2022-07-23T17:52:20;2.47;;;2.27;;
20443;SDS011;10381;53.730;10.010;2022-07-23T17:56:20;2.83;;;2.60;;
20443;SDS011;10381;53.730;10.010;2022-07-23T18:00:22;2.40;;;2.20;;
20443;SDS011;10381;53.730;10.010;2022-07-23T18:04:25;5.68;;;2.20;;
20443;SDS011;10381;53.730;10.010;2022-07-23T18:08:25;8.70;;;2.33;;
20443;SDS011;10381;53.730;10.010;2022-07-23T18:12:26;2.40;;;2.20;;
20443;SDS011;10381;53.730;10.010;2022-07-23T18:16:26;2.50;;;2.30;;
20443;SDS011;10381;53.730;10.010;2022-07-23T18:20:26;2.57;;;2.37;;
20443;SDS011;10381;53.730;10.010;2022-07-23T18:24:27;2.17;;;2.00;;
20443;SDS011;10381;53.730;10.010;2022-07-23T18:28:27;2.80;;;2.50;;
20443;SDS011;10381;53.730;10.010;2022-07-23T18:32:27;2.10;;;2.00;;
20443;SDS011;10381;53.730;10.010;2022-07-23T18:36:28;2.73;;;2.43;;
20443;SDS011;10381;53.730;10.010;2022-07-23T18:40:28;2.23;;;2.03;;
20443;SDS011;10381;53.730;10.010;2022-07-23T18:44:28;2.70;;;2.45;;
20443;SDS011;10381;53.730;10.010;2022-07-23T18:48:29;2.20;;;2.00;;
20443;SDS011;10381;53.730;10.010;2022-07-23T18:52:29;2.88;;;2.00;;
20443;SDS011;10381;53.730;10.010;2022-07-23T18:56:29;7.30;;;2.33;;
20443;SDS011;10381;53.730;10.010;2022-07-23T19:00:30;4.10;;;2.30;;
20443;SDS011;10381;53.730;10.010;2022-07-23T19:04:32;1.98;;;1.80;;
20443;SDS011;10381;53.730;10.010;2022-07-23T19:08:33;3.08;;;2.28;;
20443;SDS011;10381;53.730;10.010;2022-07-23T19:12:33;3.67;;;2.40;;
20443;SDS011;10381;53.730;10.010;2022-07-23T19:16:33;3.90;;;2.53;;
20443;SDS011;10381;53.730;10.010;2022-07-23T19:20:34;3.38;;;2.17;;
20443;SDS011;10381;53.730;10.010;2022-07-23T19:24:34;2.47;;;2.28;;
20443;SDS011;10381;53.730;10.010;2022-07-23T19:28:34;3.72;;;1.88;;
20443;SDS011;10381;53.730;10.010;2022-07-23T19:32:35;6.32;;;2.13;;
20443;SDS011;10381;53.730;10.010;2022-07-23T19:36:36;5.10;;;2.65;;
20443;SDS011;10381;53.730;10.010;2022-07-23T19:40:36;4.75;;;3.00;;
20443;SDS011;10381;53.730;10.010;2022-07-23T19:44:37;3.60;;;2.07;;
20443;SDS011;10381;53.730;10.010;2022-07-23T19:48:38;3.88;;;3.15;;
20443;SDS011;10381;53.730;10.010;2022-07-23T19:52:38;5.00;;;3.30;;
20443;SDS011;10381;53.730;10.010;2022-07-23T19:56:39;4.40;;;3.00;;
20443;SDS011;10381;53.730;10.010;2022-07-23T20:00:39;5.35;;;3.10;;
20443;SDS011;10381;53.730;10.010;2022-07-23T20:04:40;6.57;;;3.63;;
20443;SDS011;10381;53.730;10.010;2022-07-23T20:08:40;5.93;;;3.60;;
20443;SDS011;10381;53.730;10.010;2022-07-23T20:12:41;4.32;;;3.80;;
20443;SDS011;10381;53.730;10.010;2022-07-23T20:16:41;4.45;;;3.30;;
20443;SDS011;10381;53.730;10.010;2022-07-23T20:20:42;5.75;;;3.90;;
20443;SDS011;10381;53.730;10.010;2022-07-23T20:24:42;6.40;;;3.80;;
20443;SDS011;10381;53.730;10.010;2022-07-23T20:28:43;5.07;;;3.95;;
20443;SDS011;10381;53.730;10.010;2022-07-23T20:32:43;6.25;;;4.53;;
20443;SDS011;10381;53.730;10.010;2022-07-23T20:36:44;4.10;;;3.70;;
20443;SDS011;10381;53.730;10.010;2022-07-23T20:40:44;6.28;;;4.07;;
20443;SDS011;10381;53.730;10.010;2022-07-23T20:44:45;5.90;;;4.00;;
20443;SDS011;10381;53.730;10.010;2022-07-23T20:48:45;5.82;;;3.60;;
20443;SDS011;10381;53.730;10.010;2022-07-23T20:52:46;10.57;;;4.15;;
20443;SDS011;10381;53.730;10.010;2022-07-23T20:56:46;7.13;;;3.78;;
20443;SDS011;10381;53.730;10.010;2022-07-23T21:00:46;8.50;;;3.90;;
20443;SDS011;10381;53.730;10.010;2022-07-23T21:04:47;6.07;;;4.40;;
20443;SDS011;10381;53.730;10.010;2022-07-23T21:08:49;4.97;;;4.07;;
20443;SDS011;10381;53.730;10.010;2022-07-23T21:12:50;9.55;;;5.18;;
20443;SDS011;10381;53.730;10.010;2022-07-23T21:16:50;8.80;;;4.80;;
20443;SDS011;10381;53.730;10.010;2022-07-23T21:20:50;12.30;;;5.33;;
20443;SDS011;10381;53.730;10.010;2022-07-23T21:25:12;13.18;;;5.60;;
20443;SDS011;10381;53.730;10.010;2022-07-23T21:29:14;7.40;;;4.88;;
20443;SDS011;10381;53.730;10.010;2022-07-23T21:33:14;7.73;;;3.90;;
20443;SDS011;10381;53.730;10.010;2022-07-23T21:37:14;5.90;;;4.25;;
20443;SDS011;10381;53.730;10.010;2022-07-23T21:41:15;7.45;;;5.10;;
20443;SDS011;10381;53.730;10.010;2022-07-23T21:45:15;6.88;;;3.97;;
20443;SDS011;10381;53.730;10.010;2022-07-23T21:49:16;7.90;;;4.72;;
20443;SDS011;10381;53.730;10.010;2022-07-23T21:53:17;6.03;;;3.97;;
20443;SDS011;10381;53.730;10.010;2022-07-23T21:57:18;5.65;;;4.15;;
20443;SDS011;10381;53.730;10.010;2022-07-23T22:01:18;5.88;;;4.13;;
20443;SDS011;10381;53.730;10.010;2022-07-23T22:05:20;5.20;;;4.32;;
20443;SDS011;10381;53.730;10.010;2022-07-23T22:09:21;6.25;;;4.32;;
20443;SDS011;10381;53.730;10.010;2022-07-23T22:13:21;9.20;;;4.47;;
20443;SDS011;10381;53.730;10.010;2022-07-23T22:17:21;10.98;;;4.45;;
20443;SDS011;10381;53.730;10.010;2022-07-23T22:21:22;5.63;;;4.37;;
20443;SDS011;10381;53.730;10.010;2022-07-23T22:25:22;6.67;;;4.57;;
20443;SDS011;10381;53.730;10.010;2022-07-23T22:29:22;5.60;;;4.18;;
20443;SDS011;10381;53.730;10.010;2022-07-23T22:33:23;5.20;;;4.30;;
20443;SDS011;10381;53.730;10.010;2022-07-23T22:37:23;6.28;;;4.53;;
20443;SDS011;10381;53.730;10.010;2022-07-23T22:41:23;5.05;;;3.83;;
20443;SDS011;10381;53.730;10.010;2022-07-23T22:45:24;7.95;;;4.30;;
20443;SDS011;10381;53.730;10.010;2022-07-23T22:49:24;7.05;;;4.18;;
20443;SDS011;10381;53.730;10.010;2022-07-23T22:53:25;6.70;;;4.07;;
20443;SDS011;10381;53.730;10.010;2022-07-23T22:57:25;21.77;;;5.30;;
20443;SDS011;10381;53.730;10.010;2022-07-23T23:01:25;8.20;;;4.47;;
20443;SDS011;10381;53.730;10.010;2022-07-23T23:05:25;6.13;;;4.27;;
20443;SDS011;10381;53.730;10.010;2022-07-23T23:09:26;8.10;;;5.03;;
20443;SDS011;10381;53.730;10.010;2022-07-23T23:13:26;15.45;;;5.00;;
20443;SDS011;10381;53.730;10.010;2022-07-23T23:17:27;7.13;;;3.97;;
20443;SDS011;10381;53.730;10.010;2022-07-23T23:21:27;6.88;;;4.65;;
20443;SDS011;10381;53.730;10.010;2022-07-23T23:25:27;8.30;;;5.07;;
20443;SDS011;10381;53.730;10.010;2022-07-23T23:29:28;8.90;;;5.07;;
20443;SDS011;10381;53.730;10.010;2022-07-23T23:33:28;9.17;;;5.07;;
20443;SDS011;10381;53.730;10.010;2022-07-23T23:37:28;9.40;;;5.50;;
20443;SDS011;10381;53.730;10.010;2022-07-23T23:41:28;16.87;;;5.87;;
20443;SDS011;10381;53.730;10.010;2022-07-23T23:45:29;8.67;;;5.03;;
20443;SDS011;10381;53.730;10.010;2022-07-23T23:49:29;9.83;;;5.03;;
20443;SDS011;10381;53.730;10.010;2022-07-23T23:53:29;10.35;;;5.25;;
20443;SDS011;10381;53.730;10.010;2022-07-23T23:57:30;14.18;;;5.68;;
